Time;durP1;ratioP1;P1;durP2;ratioP2;P2;SDS_P1;SDS_P2;PMS_P1;PMS_P2;Temp;Humidity;BMP_temperature;BMP_pressure;BME280_temperature;BME280_humidity;BME280_pressure;Samples;Min_cycle;Max_cycle;Signal;HPM_P1;HPM_P2
2023/02/15 00:00:46;;;;;;;28.42;20.52;;;4.00;99.90;;;;;;2074806;28;20032;-73
2023/02/15 00:01:48;;;;;;;29.35;21.65;;;3.90;99.90;;;;;;2074608;28;20030;-73
2023/02/15 00:02:48;;;;;;;25.15;20.15;;;3.90;99.90;;;;;;2073282;28;20064;-73
2023/02/15 00:03:49;;;;;;;28.30;21.23;;;3.90;99.90;;;;;;2073820;28;20034;-73
2023/02/15 00:04:50;;;;;;;25.10;19.60;;;3.90;99.90;;;;;;2072127;28;20034;-74
2023/02/15 00:05:50;;;;;;;26.85;21.13;;;3.90;99.90;;;;;;2074978;28;20124;-73
2023/02/15 00:06:51;;;;;;;30.13;21.45;;;3.90;99.90;;;;;;2076648;28;20103;-73
2023/02/15 00:07:51;;;;;;;28.40;21.25;;;3.90;99.90;;;;;;2075105;28;20025;-73
2023/02/15 00:08:53;;;;;;;27.23;19.58;;;3.90;99.90;;;;;;2075196;28;20033;-73
2023/02/15 00:09:53;;;;;;;26.38;20.02;;;3.90;99.90;;;;;;2074975;28;20029;-73
2023/02/15 00:11:10;;;;;;;26.40;20.60;;;3.80;99.90;;;;;;2075173;28;20036;-73
2023/02/15 00:12:10;;;;;;;26.23;20.38;;;3.80;99.90;;;;;;2075672;28;20026;-73
2023/02/15 00:13:10;;;;;;;24.42;19.88;;;3.80;99.90;;;;;;2074176;28;20271;-73
2023/02/15 00:14:13;;;;;;;26.17;20.88;;;3.80;99.90;;;;;;2072964;28;20037;-73
2023/02/15 00:15:14;;;;;;;28.15;20.40;;;3.80;99.90;;;;;;2082821;28;20058;-73
2023/02/15 00:16:14;;;;;;;28.52;21.25;;;3.80;99.90;;;;;;2081567;28;20044;-73
2023/02/15 00:17:15;;;;;;;25.80;19.80;;;3.80;99.90;;;;;;2073609;28;20065;-73
2023/02/15 00:18:15;;;;;;;27.42;21.42;;;3.80;99.90;;;;;;2073996;28;20022;-73
2023/02/15 00:19:18;;;;;;;29.50;21.08;;;3.80;99.90;;;;;;2073562;28;20049;-73
2023/02/15 00:20:18;;;;;;;27.52;20.90;;;3.80;99.90;;;;;;2073855;28;20528;-73
2023/02/15 00:21:19;;;;;;;27.25;20.25;;;3.80;99.90;;;;;;2074085;28;20369;-73
2023/02/15 00:22:20;;;;;;;24.95;19.15;;;3.70;99.90;;;;;;2073775;28;20025;-73
2023/02/15 00:23:21;;;;;;;29.42;21.67;;;3.70;99.90;;;;;;2076186;28;20029;-73
2023/02/15 00:24:21;;;;;;;27.70;20.80;;;3.70;99.90;;;;;;2075478;28;20113;-73
2023/02/15 00:25:22;;;;;;;27.40;19.38;;;3.70;99.90;;;;;;2075231;28;20029;-73
2023/02/15 00:26:22;;;;;;;26.30;20.25;;;3.70;99.90;;;;;;2076516;28;20485;-73
2023/02/15 00:27:23;;;;;;;25.42;19.05;;;3.70;99.90;;;;;;2073472;28;20038;-73
2023/02/15 00:28:23;;;;;;;26.13;19.42;;;3.70;99.90;;;;;;2072811;28;20384;-73
2023/02/15 00:29:25;;;;;;;28.63;20.20;;;3.70;99.90;;;;;;2072187;28;20029;-73
2023/02/15 00:30:25;;;;;;;27.30;21.10;;;3.70;99.90;;;;;;2073181;28;20044;-73
2023/02/15 00:31:27;;;;;;;29.55;20.98;;;3.70;99.90;;;;;;2075084;28;20539;-73
2023/02/15 00:32:28;;;;;;;30.92;22.10;;;3.70;99.90;;;;;;2076766;28;20022;-73
2023/02/15 00:33:28;;;;;;;31.05;22.45;;;3.70;99.90;;;;;;2074748;28;20033;-73
2023/02/15 00:34:29;;;;;;;27.23;20.45;;;3.60;99.90;;;;;;2072630;28;20080;-73
2023/02/15 00:35:29;;;;;;;29.65;22.25;;;3.60;99.90;;;;;;2074862;28;20065;-73
2023/02/15 00:36:30;;;;;;;28.30;21.42;;;3.60;99.90;;;;;;2075031;28;20069;-73
2023/02/15 00:37:30;;;;;;;24.45;19.95;;;3.60;99.90;;;;;;2073081;28;20917;-73
2023/02/15 00:38:32;;;;;;;27.27;20.95;;;3.60;99.90;;;;;;2075360;28;20057;-73
2023/02/15 00:39:32;;;;;;;25.98;19.92;;;3.60;99.90;;;;;;2074595;28;20025;-73
2023/02/15 00:40:33;;;;;;;32.58;21.33;;;3.60;99.90;;;;;;2075496;28;20053;-73
2023/02/15 00:41:34;;;;;;;30.30;23.00;;;3.60;99.90;;;;;;2074581;28;20033;-73
2023/02/15 00:42:34;;;;;;;27.60;20.85;;;3.50;99.90;;;;;;2073856;28;20029;-73
2023/02/15 00:43:36;;;;;;;26.25;20.65;;;3.50;99.90;;;;;;2074680;28;20037;-73
2023/02/15 00:44:36;;;;;;;25.65;19.65;;;3.50;99.90;;;;;;2077176;28;20112;-73
2023/02/15 00:45:37;;;;;;;26.40;21.27;;;3.50;99.90;;;;;;2075744;28;20632;-73
2023/02/15 00:46:37;;;;;;;28.48;20.65;;;3.50;99.90;;;;;;2075200;28;20030;-73
2023/02/15 00:47:38;;;;;;;23.70;18.55;;;3.50;99.90;;;;;;2075243;28;20040;-73
2023/02/15 00:48:38;;;;;;;26.67;19.67;;;3.50;99.90;;;;;;2076493;28;20029;-73
2023/02/15 00:49:39;;;;;;;24.15;19.05;;;3.50;99.90;;;;;;2073308;28;20640;-73
2023/02/15 00:50:39;;;;;;;27.38;21.23;;;3.50;99.90;;;;;;2079299;28;20433;-73
2023/02/15 00:51:40;;;;;;;30.05;22.25;;;3.40;99.90;;;;;;2079061;28;20164;-73
2023/02/15 00:52:40;;;;;;;25.27;19.67;;;3.40;99.90;;;;;;2077189;28;20075;-73
2023/02/15 00:53:41;;;;;;;28.55;20.88;;;3.40;99.90;;;;;;2076051;28;20044;-73
2023/02/15 00:54:41;;;;;;;30.90;22.58;;;3.40;99.90;;;;;;2074530;28;20136;-73
2023/02/15 00:55:42;;;;;;;30.90;22.35;;;3.40;99.90;;;;;;2077935;28;20029;-73
2023/02/15 00:56:43;;;;;;;30.88;22.20;;;3.40;99.90;;;;;;2076913;28;20056;-73
2023/02/15 00:57:43;;;;;;;27.35;20.83;;;3.40;99.90;;;;;;2076647;28;20026;-73
2023/02/15 00:58:44;;;;;;;27.13;20.70;;;3.40;99.90;;;;;;2076131;28;20030;-73
2023/02/15 00:59:44;;;;;;;30.05;20.38;;;3.40;99.90;;;;;;2075145;28;20104;-73
2023/02/15 01:00:47;;;;;;;28.88;21.15;;;3.40;99.90;;;;;;2074976;28;20030;-73
2023/02/15 01:01:47;;;;;;;26.98;21.17;;;3.40;99.90;;;;;;2074365;28;20048;-73
2023/02/15 01:02:48;;;;;;;23.73;19.40;;;3.30;99.90;;;;;;2074670;28;20446;-73
2023/02/15 01:03:49;;;;;;;27.02;19.92;;;3.30;99.90;;;;;;2076021;28;20545;-73
2023/02/15 01:04:49;;;;;;;26.42;20.33;;;3.40;99.90;;;;;;2075358;28;20029;-73
2023/02/15 01:05:50;;;;;;;25.95;20.80;;;3.30;99.90;;;;;;2077692;28;20433;-73
2023/02/15 01:06:50;;;;;;;26.35;19.70;;;3.30;99.90;;;;;;2077718;28;20018;-73
2023/02/15 01:07:51;;;;;;;26.38;19.40;;;3.30;99.90;;;;;;2077255;28;20057;-73
2023/02/15 01:08:52;;;;;;;27.98;21.15;;;3.30;99.90;;;;;;2072772;28;20375;-73
2023/02/15 01:09:52;;;;;;;22.58;18.23;;;3.30;99.90;;;;;;2075299;28;20041;-73
2023/02/15 01:10:53;;;;;;;28.00;21.15;;;3.30;99.90;;;;;;2074421;28;20065;-73
2023/02/15 01:11:54;;;;;;;26.42;20.73;;;3.30;99.90;;;;;;2074911;28;20183;-73
2023/02/15 01:12:56;;;;;;;26.48;20.08;;;3.20;99.90;;;;;;2075214;28;20026;-73
2023/02/15 01:13:58;;;;;;;26.23;20.80;;;3.20;99.90;;;;;;2073129;28;20034;-73
2023/02/15 01:14:58;;;;;;;27.80;21.42;;;3.20;99.90;;;;;;2073189;28;20482;-73
2023/02/15 01:15:59;;;;;;;29.08;22.27;;;3.20;99.90;;;;;;2077650;28;20443;-73
2023/02/15 01:17:00;;;;;;;28.85;21.60;;;3.20;99.90;;;;;;2076172;28;20037;-73
2023/02/15 01:18:00;;;;;;;24.65;20.70;;;3.20;99.90;;;;;;2076688;28;20535;-73
2023/02/15 01:19:02;;;;;;;23.35;18.33;;;3.20;99.90;;;;;;2076377;28;20083;-73
2023/02/15 01:20:03;;;;;;;26.65;19.13;;;3.20;99.90;;;;;;2076514;28;20029;-73
2023/02/15 01:21:16;;;;;;;30.25;23.20;;;3.20;99.90;;;;;;2075278;28;20029;-73
2023/02/15 01:22:17;;;;;;;29.27;21.83;;;3.20;99.90;;;;;;2074034;28;20026;-73
2023/02/15 01:23:17;;;;;;;28.27;21.73;;;3.10;99.90;;;;;;2079349;28;20385;-73
2023/02/15 01:24:18;;;;;;;30.83;23.30;;;3.10;99.90;;;;;;2079428;28;20107;-73
2023/02/15 01:25:21;;;;;;;35.05;24.40;;;3.10;99.90;;;;;;2076701;28;20594;-73
2023/02/15 01:26:21;;;;;;;30.80;22.92;;;3.10;99.90;;;;;;2076997;28;20026;-73
2023/02/15 01:27:22;;;;;;;28.15;21.52;;;3.10;99.90;;;;;;2069688;28;20034;-73
2023/02/15 01:28:22;;;;;;;28.35;20.35;;;3.10;99.90;;;;;;2078659;28;20032;-73
2023/02/15 01:29:23;;;;;;;26.02;19.73;;;3.00;99.90;;;;;;2075867;28;20067;-73
2023/02/15 01:30:23;;;;;;;27.05;20.92;;;3.00;99.90;;;;;;2075428;28;20040;-73
2023/02/15 01:31:24;;;;;;;27.58;21.02;;;3.00;99.90;;;;;;2075812;28;20034;-73
2023/02/15 01:32:24;;;;;;;26.58;20.10;;;3.00;99.90;;;;;;2074639;28;20072;-73
2023/02/15 01:33:25;;;;;;;29.90;22.00;;;3.00;99.90;;;;;;2074813;28;20092;-73
2023/02/15 01:34:26;;;;;;;26.48;19.92;;;3.00;99.90;;;;;;2076436;28;20092;-73
2023/02/15 01:35:27;;;;;;;31.10;22.27;;;3.00;99.90;;;;;;2075558;28;20021;-73
2023/02/15 01:36:28;;;;;;;30.88;23.52;;;3.00;99.90;;;;;;2075992;28;20022;-73
2023/02/15 01:37:31;;;;;;;32.33;23.85;;;3.00;99.90;;;;;;2074664;28;20025;-73
2023/02/15 01:38:32;;;;;;;33.17;24.60;;;3.00;99.90;;;;;;2078877;28;20164;-73
2023/02/15 01:39:32;;;;;;;30.17;22.42;;;3.00;99.90;;;;;;2079460;28;20074;-73
2023/02/15 01:40:33;;;;;;;30.05;21.48;;;3.00;99.90;;;;;;2078753;28;20057;-73
2023/02/15 01:41:33;;;;;;;31.17;22.30;;;3.00;99.90;;;;;;2077852;28;20389;-73
2023/02/15 01:42:34;;;;;;;27.92;20.58;;;3.00;99.90;;;;;;2078409;28;20026;-73
2023/02/15 01:43:40;;;;;;;24.27;19.92;;;3.00;99.90;;;;;;2074201;28;20033;-73
2023/02/15 01:44:59;;;;;;;30.98;23.13;;;3.00;99.90;;;;;;2075661;28;20032;-73
2023/02/15 01:45:59;;;;;;;28.15;20.92;;;2.90;99.90;;;;;;2075384;28;20788;-73
2023/02/15 01:47:00;;;;;;;29.85;23.02;;;2.90;99.90;;;;;;2075191;28;20492;-73
2023/02/15 01:48:06;;;;;;;28.55;21.25;;;2.90;99.90;;;;;;2075211;28;20389;-73
2023/02/15 01:49:17;;;;;;;31.42;22.67;;;2.90;99.90;;;;;;2074211;28;20131;-73
2023/02/15 01:50:34;;;;;;;26.15;20.15;;;2.90;99.90;;;;;;2077308;28;20037;-73
2023/02/15 01:51:37;;;;;;;28.05;20.35;;;2.90;99.90;;;;;;2077434;28;20484;-73
2023/02/15 01:52:52;;;;;;;29.48;22.42;;;2.90;99.90;;;;;;2075152;28;20018;-73
2023/02/15 01:54:25;;;;;;;30.38;22.10;;;2.90;99.90;;;;;;2076737;28;20033;-73
2023/02/15 01:55:33;;;;;;;28.13;21.67;;;2.80;99.90;;;;;;2068421;28;20033;-73
2023/02/15 01:56:36;;;;;;;23.90;19.25;;;2.80;99.90;;;;;;2075855;28;20104;-73
2023/02/15 01:57:37;;;;;;;29.50;21.70;;;2.80;99.90;;;;;;2077243;28;20087;-73
2023/02/15 01:58:38;;;;;;;32.15;23.52;;;2.80;99.90;;;;;;2074395;28;20096;-73
2023/02/15 01:59:45;;;;;;;28.15;21.25;;;2.80;99.90;;;;;;2075552;28;20697;-73
2023/02/15 02:00:46;;;;;;;32.55;22.77;;;2.80;99.90;;;;;;2075910;28;20215;-72
2023/02/15 02:01:47;;;;;;;27.90;20.63;;;2.80;99.90;;;;;;2075410;28;20521;-72
2023/02/15 02:02:52;;;;;;;33.13;24.63;;;2.80;99.90;;;;;;2075657;28;20044;-72
2023/02/15 02:04:09;;;;;;;24.70;20.10;;;2.80;99.90;;;;;;2076049;28;20042;-72
2023/02/15 02:05:10;;;;;;;29.00;22.77;;;2.70;99.90;;;;;;2076380;28;20030;-72
2023/02/15 02:06:10;;;;;;;27.65;21.58;;;2.70;99.90;;;;;;2073611;28;20022;-72
2023/02/15 02:07:14;;;;;;;34.40;24.83;;;2.70;99.90;;;;;;2075630;28;20117;-72
2023/02/15 02:08:14;;;;;;;31.77;23.02;;;2.70;99.90;;;;;;2074441;28;20026;-72
2023/02/15 02:09:15;;;;;;;29.00;22.38;;;2.70;99.90;;;;;;2075337;28;20038;-72
2023/02/15 02:10:18;;;;;;;30.02;23.40;;;2.70;99.90;;;;;;2075027;28;20503;-72
2023/02/15 02:11:19;;;;;;;30.27;21.90;;;2.70;99.90;;;;;;2075301;28;20029;-72
2023/02/15 02:12:22;;;;;;;29.63;22.63;;;2.70;99.90;;;;;;2075583;28;20030;-72
2023/02/15 02:13:22;;;;;;;29.00;22.08;;;2.70;99.90;;;;;;2076050;28;20500;-72
2023/02/15 02:14:24;;;;;;;30.20;21.85;;;2.70;99.90;;;;;;2074374;28;20397;-72
2023/02/15 02:15:46;;;;;;;34.92;24.52;;;2.60;99.90;;;;;;2075996;28;20049;-72
2023/02/15 02:16:58;;;;;;;31.42;23.02;;;2.60;99.90;;;;;;2079475;28;20186;-72
2023/02/15 02:18:22;;;;;;;28.08;21.00;;;2.60;99.90;;;;;;2082602;28;20030;-72
2023/02/15 02:19:52;;;;;;;28.48;21.40;;;2.60;99.90;;;;;;2083853;28;20025;-72
2023/02/15 02:21:10;;;;;;;26.52;20.75;;;2.60;99.90;;;;;;2063369;28;20082;-72
2023/02/15 02:22:14;;;;;;;28.60;22.48;;;2.50;99.90;;;;;;2081771;28;20034;-72
2023/02/15 02:23:43;;;;;;;33.53;24.55;;;2.60;99.90;;;;;;2084734;28;20132;-72
2023/02/15 02:25:16;;;;;;;29.77;23.65;;;2.60;99.90;;;;;;2073615;28;20026;-72
2023/02/15 02:26:27;;;;;;;25.55;19.92;;;2.50;99.90;;;;;;2074520;28;20037;-72
2023/02/15 02:27:37;;;;;;;27.95;20.85;;;2.50;99.90;;;;;;2082185;28;20026;-72
2023/02/15 02:28:46;;;;;;;30.02;23.63;;;2.50;99.90;;;;;;2074925;28;20045;-72
2023/02/15 02:30:25;;;;;;;28.37;21.43;;;2.50;99.90;;;;;;2074781;28;20915;-72
2023/02/15 02:31:47;;;;;;;27.00;21.55;;;2.50;99.90;;;;;;2078195;28;20281;-72
2023/02/15 02:33:25;;;;;;;27.80;20.80;;;2.40;99.90;;;;;;2075902;28;20093;-72
2023/02/15 02:34:35;;;;;;;27.17;21.42;;;2.40;99.90;;;;;;2074925;28;20018;-72
2023/02/15 02:35:53;;;;;;;28.27;22.70;;;2.40;99.90;;;;;;2076039;28;20389;-72
2023/02/15 02:37:05;;;;;;;26.08;21.23;;;2.40;99.90;;;;;;2077234;28;20476;-72
2023/02/15 02:38:06;;;;;;;29.80;22.38;;;2.40;99.90;;;;;;2082723;28;20488;-72
2023/02/15 02:39:23;;;;;;;28.02;21.35;;;2.40;99.90;;;;;;2082738;28;20416;-72
2023/02/15 02:40:53;;;;;;;32.13;22.50;;;2.40;99.90;;;;;;2075836;28;20080;-72
2023/02/15 02:42:05;;;;;;;26.92;21.25;;;2.40;99.90;;;;;;2075288;28;20183;-72
2023/02/15 02:43:15;;;;;;;29.23;22.95;;;2.40;99.90;;;;;;2074978;28;20042;-71
2023/02/15 02:44:25;;;;;;;30.90;21.30;;;2.40;99.90;;;;;;2075505;28;20612;-71
2023/02/15 02:45:31;;;;;;;29.35;22.27;;;2.40;99.90;;;;;;2074134;28;20034;-71
2023/02/15 02:46:54;;;;;;;29.92;23.00;;;2.40;99.90;;;;;;2080126;28;20025;-71
2023/02/15 02:48:11;;;;;;;32.13;25.30;;;2.30;99.90;;;;;;2077160;28;20045;-71
2023/02/15 02:49:12;;;;;;;31.52;23.77;;;2.30;99.90;;;;;;2074726;28;20033;-71
2023/02/15 02:50:18;;;;;;;31.17;19.90;;;2.30;99.90;;;;;;2072923;28;20064;-71
2023/02/15 02:51:21;;;;;;;31.42;23.02;;;2.30;99.90;;;;;;2073538;28;20030;-71
2023/02/15 02:52:58;;;;;;;31.23;24.35;;;2.30;99.90;;;;;;2074304;28;20032;-71
2023/02/15 02:54:04;;;;;;;29.00;22.48;;;2.30;99.90;;;;;;2082624;28;20044;-71
2023/02/15 02:55:15;;;;;;;30.85;23.40;;;2.30;99.90;;;;;;2082414;28;20030;-71
2023/02/15 02:56:21;;;;;;;30.85;22.45;;;2.30;99.90;;;;;;2074667;28;20107;-71
2023/02/15 02:57:24;;;;;;;26.45;20.45;;;2.30;99.90;;;;;;2073255;28;20033;-71
2023/02/15 02:58:47;;;;;;;33.70;24.80;;;2.30;99.90;;;;;;2073849;28;20057;-71
2023/02/15 02:59:50;;;;;;;35.72;25.10;;;2.30;99.90;;;;;;2074429;28;20032;-71
2023/02/15 03:00:57;;;;;;;29.80;21.35;;;2.30;99.90;;;;;;2075517;28;20037;-71
2023/02/15 03:02:02;;;;;;;27.13;22.23;;;2.30;99.90;;;;;;2075389;28;20091;-71
2023/02/15 03:03:07;;;;;;;32.85;23.67;;;2.30;99.90;;;;;;2073797;28;20037;-71
2023/02/15 03:04:18;;;;;;;29.25;21.77;;;2.30;99.90;;;;;;2074714;28;20034;-71
2023/02/15 03:05:25;;;;;;;31.35;24.42;;;2.30;99.90;;;;;;2074215;28;20473;-71
2023/02/15 03:06:33;;;;;;;32.30;24.27;;;2.30;99.90;;;;;;2075688;28;20037;-71
2023/02/15 03:07:35;;;;;;;27.25;22.88;;;2.30;99.90;;;;;;2072994;28;20041;-71
2023/02/15 03:08:42;;;;;;;31.08;24.10;;;2.20;99.90;;;;;;2077279;28;21749;-71
2023/02/15 03:09:46;;;;;;;28.77;22.70;;;2.30;99.90;;;;;;2075722;28;20473;-71
2023/02/15 03:10:47;;;;;;;28.40;21.92;;;2.20;99.90;;;;;;2076245;28;20594;-71
2023/02/15 03:11:48;;;;;;;27.38;21.77;;;2.20;99.90;;;;;;2073563;28;20449;-71
2023/02/15 03:12:49;;;;;;;29.45;21.98;;;2.20;99.90;;;;;;2074427;28;20053;-71
2023/02/15 03:13:50;;;;;;;28.83;22.05;;;2.20;99.90;;;;;;2076258;28;20053;-71
2023/02/15 03:14:55;;;;;;;29.08;21.70;;;2.20;99.90;;;;;;2077315;28;20076;-71
2023/02/15 03:17:19;;;;;;;25.75;20.55;;;2.20;99.90;;;;;;2074402;28;20480;-71
2023/02/15 03:18:25;;;;;;;29.23;21.52;;;2.20;99.90;;;;;;2075114;28;20513;-71
2023/02/15 03:19:30;;;;;;;28.30;20.70;;;2.20;99.90;;;;;;2073262;28;20544;-71
2023/02/15 03:20:35;;;;;;;26.08;19.90;;;2.20;99.90;;;;;;2073989;28;20033;-71
2023/02/15 03:21:38;;;;;;;25.27;20.33;;;2.20;99.90;;;;;;2074782;28;20116;-71
2023/02/15 03:22:46;;;;;;;31.50;21.95;;;2.20;99.90;;;;;;2074189;28;20026;-71
2023/02/15 03:23:52;;;;;;;26.25;20.63;;;2.20;99.90;;;;;;2074848;28;20115;-71
2023/02/15 03:25:11;;;;;;;27.52;21.75;;;2.10;99.90;;;;;;2074379;28;20029;-71
2023/02/15 03:26:12;;;;;;;31.02;23.75;;;2.10;99.90;;;;;;2075345;28;20524;-71
2023/02/15 03:27:20;;;;;;;28.20;22.38;;;2.10;99.90;;;;;;2078546;28;20504;-71
2023/02/15 03:28:42;;;;;;;30.08;22.92;;;2.10;99.90;;;;;;2077170;28;20559;-71
2023/02/15 03:29:46;;;;;;;27.40;21.05;;;2.10;99.90;;;;;;2075259;28;20477;-71
2023/02/15 03:30:51;;;;;;;30.58;23.33;;;2.10;99.90;;;;;;2073850;28;20120;-71
2023/02/15 03:31:57;;;;;;;29.38;23.75;;;2.10;99.90;;;;;;2074526;28;20084;-71
2023/02/15 03:33:00;;;;;;;30.83;23.65;;;2.10;99.90;;;;;;2075690;28;20462;-71
2023/02/15 03:34:04;;;;;;;32.53;25.17;;;2.10;99.90;;;;;;2072714;28;20863;-71
2023/02/15 03:35:06;;;;;;;31.20;24.15;;;2.10;99.90;;;;;;2073067;28;20398;-71
2023/02/15 03:36:06;;;;;;;33.00;24.98;;;2.10;99.90;;;;;;2074432;28;20033;-71
2023/02/15 03:37:13;;;;;;;30.58;24.05;;;2.10;99.90;;;;;;2074028;28;20056;-71
2023/02/15 03:38:20;;;;;;;28.42;23.13;;;2.10;99.90;;;;;;2075720;28;20021;-71
2023/02/15 03:39:28;;;;;;;31.48;23.20;;;2.10;99.90;;;;;;2074968;28;20026;-71
2023/02/15 03:41:58;;;;;;;29.60;22.20;;;2.10;99.90;;;;;;2074265;28;20057;-71
2023/02/15 03:43:21;;;;;;;29.88;23.13;;;2.00;99.90;;;;;;2074037;28;20128;-71
2023/02/15 03:44:29;;;;;;;31.88;24.45;;;2.00;99.90;;;;;;2073650;28;20029;-71
2023/02/15 03:45:32;;;;;;;29.27;22.00;;;2.00;99.90;;;;;;2075811;28;20034;-71
2023/02/15 03:46:46;;;;;;;27.38;21.60;;;2.00;99.90;;;;;;2073322;28;20048;-71
2023/02/15 03:47:49;;;;;;;28.90;21.88;;;2.00;99.90;;;;;;2075062;28;20033;-71
2023/02/15 03:48:58;;;;;;;32.25;22.55;;;2.00;99.90;;;;;;2073999;28;20026;-71
2023/02/15 03:51:37;;;;;;;27.55;21.23;;;2.00;99.90;;;;;;2073459;28;20034;-71
2023/02/15 03:52:38;;;;;;;25.98;21.20;;;2.00;99.90;;;;;;2075583;28;20678;-71
2023/02/15 03:53:40;;;;;;;27.83;22.73;;;2.00;99.90;;;;;;2073669;28;20373;-71
2023/02/15 03:54:45;;;;;;;24.77;19.70;;;2.00;99.90;;;;;;2073746;28;20018;-71
2023/02/15 03:55:47;;;;;;;26.65;20.50;;;2.00;99.90;;;;;;2077865;28;20075;-71
2023/02/15 04:01:56;;;;;;;26.75;21.27;;;2.00;99.90;;;;;;2078199;28;20029;-71
2023/02/15 04:03:17;;;;;;;27.83;20.60;;;1.90;99.90;;;;;;2072253;28;20851;-71
2023/02/15 04:04:21;;;;;;;25.90;21.77;;;1.80;99.90;;;;;;2074134;28;20121;-71
2023/02/15 04:05:21;;;;;;;27.58;21.60;;;1.80;99.90;;;;;;2073451;28;20511;-71
2023/02/15 04:06:22;;;;;;;28.20;20.63;;;1.80;99.90;;;;;;2074211;28;20484;-71
2023/02/15 04:07:22;;;;;;;29.35;22.63;;;1.80;99.90;;;;;;2075025;28;20057;-71
2023/02/15 04:10:51;;;;;;;31.17;24.65;;;1.80;99.90;;;;;;2077585;28;20045;-71
2023/02/15 04:11:02;;;;;;;28.95;21.88;;;1.80;99.90;;;;;;2074796;28;20382;-71
2023/02/15 04:12:03;;;;;;;27.60;21.30;;;1.80;99.90;;;;;;2073949;28;20034;-71
2023/02/15 04:13:03;;;;;;;30.33;23.92;;;1.90;99.90;;;;;;2075029;28;20030;-71
2023/02/15 04:16:02;;;;;;;32.55;23.70;;;1.80;99.90;;;;;;2074143;28;20038;-71
2023/02/15 04:16:44;;;;;;;28.65;23.10;;;1.80;99.90;;;;;;2074996;28;20483;-71
2023/02/15 04:17:44;;;;;;;26.35;22.08;;;1.80;99.90;;;;;;2073170;28;20029;-71
2023/02/15 04:25:23;;;;;;;32.55;25.00;;;1.70;99.90;;;;;;2077920;28;20033;-71
2023/02/15 04:26:23;;;;;;;30.95;24.75;;;1.70;99.90;;;;;;2075630;28;20026;-71
2023/02/15 04:27:24;;;;;;;31.75;23.15;;;1.70;99.90;;;;;;2076610;28;20026;-71
2023/02/15 04:28:24;;;;;;;29.88;22.98;;;1.70;99.90;;;;;;2076185;28;20026;-71
2023/02/15 04:29:26;;;;;;;33.25;26.80;;;1.70;99.90;;;;;;2074915;28;20040;-71
2023/02/15 04:30:27;;;;;;;30.65;23.08;;;1.70;99.90;;;;;;2076992;28;20025;-71
2023/02/15 04:31:27;;;;;;;29.60;23.20;;;1.70;99.90;;;;;;2078657;28;20037;-71
2023/02/15 04:32:28;;;;;;;27.77;22.25;;;1.70;99.90;;;;;;2076493;28;20537;-71
2023/02/15 04:33:28;;;;;;;28.08;23.25;;;1.70;99.90;;;;;;2075532;28;20022;-71
2023/02/15 04:34:29;;;;;;;33.22;24.20;;;1.80;99.90;;;;;;2078145;28;20025;-71
2023/02/15 04:35:31;;;;;;;32.95;25.95;;;1.70;99.90;;;;;;2076445;28;20587;-71
2023/02/15 04:36:31;;;;;;;30.52;24.10;;;1.70;99.90;;;;;;2076704;28;20022;-71
2023/02/15 04:37:33;;;;;;;29.15;21.92;;;1.70;99.90;;;;;;2078334;28;20116;-72
2023/02/15 04:38:33;;;;;;;31.52;24.67;;;1.70;99.90;;;;;;2076448;28;20026;-71
2023/02/15 04:39:34;;;;;;;26.42;21.25;;;1.70;99.90;;;;;;2074279;28;20639;-71
2023/02/15 04:40:34;;;;;;;27.60;23.88;;;1.70;99.90;;;;;;2076672;28;20033;-71
2023/02/15 04:41:35;;;;;;;29.73;23.40;;;1.70;99.90;;;;;;2077397;28;20064;-71
2023/02/15 04:42:36;;;;;;;27.92;22.40;;;1.70;99.90;;;;;;2075440;28;20037;-71
2023/02/15 04:43:36;;;;;;;31.17;22.55;;;1.70;99.90;;;;;;2074895;28;20068;-71
2023/02/15 04:44:37;;;;;;;32.95;25.33;;;1.70;99.90;;;;;;2075259;28;20489;-71
2023/02/15 04:45:37;;;;;;;33.90;26.38;;;1.70;99.90;;;;;;2074763;28;20425;-71
2023/02/15 04:46:38;;;;;;;29.02;22.90;;;1.70;99.90;;;;;;2075974;28;20057;-71
2023/02/15 04:47:38;;;;;;;30.42;24.17;;;1.70;99.90;;;;;;2075195;28;20036;-71
2023/02/15 04:48:39;;;;;;;32.42;25.27;;;1.70;99.90;;;;;;2077765;28;20113;-71
2023/02/15 04:49:39;;;;;;;30.42;23.30;;;1.70;99.90;;;;;;2076597;28;20021;-71
2023/02/15 04:50:40;;;;;;;34.40;26.55;;;1.70;99.90;;;;;;2076351;28;20032;-71
2023/02/15 04:51:40;;;;;;;35.72;26.60;;;1.70;99.90;;;;;;2076670;28;20057;-71
2023/02/15 04:52:41;;;;;;;32.92;25.45;;;1.70;99.90;;;;;;2077317;28;20030;-71
2023/02/15 04:53:41;;;;;;;34.90;26.98;;;1.70;99.90;;;;;;2077009;28;20026;-71
2023/02/15 04:54:42;;;;;;;30.35;23.92;;;1.70;99.90;;;;;;2076575;28;20026;-71
2023/02/15 04:55:43;;;;;;;30.23;23.55;;;1.60;99.90;;;;;;2075790;28;21771;-71
2023/02/15 04:56:43;;;;;;;29.30;23.63;;;1.70;99.90;;;;;;2077535;28;20029;-71
2023/02/15 04:57:45;;;;;;;30.17;22.80;;;1.60;99.90;;;;;;2075165;28;20025;-71
2023/02/15 04:58:46;;;;;;;37.33;26.77;;;1.60;99.90;;;;;;2075440;28;20041;-71
2023/02/15 04:59:46;;;;;;;40.50;29.50;;;1.60;99.90;;;;;;2074159;28;20022;-71
2023/02/15 05:00:47;;;;;;;32.38;24.73;;;1.60;99.90;;;;;;2073348;28;20033;-71
2023/02/15 05:01:47;;;;;;;29.05;23.30;;;1.60;99.90;;;;;;2075669;28;20033;-71
2023/02/15 05:02:48;;;;;;;29.90;23.25;;;1.60;99.90;;;;;;2075388;28;20083;-71
2023/02/15 05:03:48;;;;;;;29.33;22.83;;;1.60;99.90;;;;;;2076265;28;20140;-71
2023/02/15 05:04:49;;;;;;;38.10;30.33;;;1.60;99.90;;;;;;2077362;28;20025;-71
2023/02/15 05:05:50;;;;;;;33.30;25.50;;;1.60;99.90;;;;;;2082737;28;20469;-71
2023/02/15 05:06:50;;;;;;;32.42;24.75;;;1.60;99.90;;;;;;2082867;28;20052;-71
2023/02/15 05:07:51;;;;;;;31.65;24.00;;;1.60;99.90;;;;;;2077039;28;20065;-71
2023/02/15 05:08:51;;;;;;;27.55;23.52;;;1.60;99.90;;;;;;2075170;28;20025;-71
2023/02/15 05:09:52;;;;;;;37.90;27.60;;;1.60;99.90;;;;;;2075136;28;20867;-71
2023/02/15 05:10:52;;;;;;;34.85;26.67;;;1.60;99.90;;;;;;2075883;28;20033;-71
2023/02/15 05:11:53;;;;;;;40.55;29.40;;;1.60;99.90;;;;;;2076572;28;20138;-71
2023/02/15 05:12:54;;;;;;;41.92;30.67;;;1.60;99.90;;;;;;2076199;28;20025;-71
2023/02/15 05:13:54;;;;;;;46.03;33.30;;;1.60;99.90;;;;;;2075846;28;20018;-71
2023/02/15 05:14:55;;;;;;;40.97;29.63;;;1.60;99.90;;;;;;2075931;28;20021;-71
2023/02/15 05:15:55;;;;;;;41.95;31.15;;;1.60;99.90;;;;;;2075217;28;20032;-71
2023/02/15 05:16:56;;;;;;;36.78;27.77;;;1.60;99.90;;;;;;2074510;28;20124;-71
2023/02/15 05:17:56;;;;;;;38.45;28.23;;;1.60;99.90;;;;;;2075434;28;20607;-71
2023/02/15 05:18:57;;;;;;;46.28;34.20;;;1.60;99.90;;;;;;2077690;28;20030;-71
2023/02/15 05:19:58;;;;;;;36.47;27.73;;;1.50;99.90;;;;;;2075950;28;20029;-71
2023/02/15 05:20:58;;;;;;;43.33;31.15;;;1.50;99.90;;;;;;2074166;28;20026;-71
2023/02/15 05:21:59;;;;;;;45.40;31.88;;;1.50;99.90;;;;;;2074594;28;20030;-71
2023/02/15 05:22:59;;;;;;;39.28;28.08;;;1.50;99.90;;;;;;2073627;28;20037;-71
2023/02/15 05:24:00;;;;;;;40.67;27.98;;;1.50;99.90;;;;;;2075463;28;20029;-71
2023/02/15 05:29:00;;;;;;;46.08;32.33;;;1.50;99.90;;;;;;2077982;28;20455;-71
2023/02/15 05:30:01;;;;;;;54.38;37.42;;;1.50;99.90;;;;;;2073150;28;20030;-71
2023/02/15 05:31:06;;;;;;;50.70;36.85;;;1.50;99.90;;;;;;2075737;28;20029;-71
2023/02/15 05:32:07;;;;;;;50.45;35.42;;;1.50;99.90;;;;;;2074596;28;20091;-71
2023/02/15 05:33:07;;;;;;;43.47;29.60;;;1.50;99.90;;;;;;2082930;28;20067;-71
2023/02/15 05:34:08;;;;;;;50.75;36.00;;;1.50;99.90;;;;;;2076278;28;20032;-71
2023/02/15 05:35:15;;;;;;;46.97;33.05;;;1.50;99.90;;;;;;2075228;28;20065;-71
2023/02/15 05:36:15;;;;;;;38.90;29.48;;;1.50;99.90;;;;;;2076932;28;20017;-71
2023/02/15 05:37:16;;;;;;;45.05;34.88;;;1.50;99.90;;;;;;2076048;28;20019;-71
2023/02/15 05:38:16;;;;;;;44.55;31.70;;;1.50;99.90;;;;;;2074392;28;20029;-71
2023/02/15 05:39:17;;;;;;;43.70;31.20;;;1.40;99.90;;;;;;2077165;28;20659;-71
2023/02/15 05:40:18;;;;;;;44.60;31.70;;;1.50;99.90;;;;;;2077250;28;20028;-71
2023/02/15 05:41:18;;;;;;;48.75;35.47;;;1.50;99.90;;;;;;2076665;28;20030;-71
2023/02/15 05:42:19;;;;;;;42.08;29.92;;;1.40;99.90;;;;;;2075313;28;20033;-71
2023/02/15 05:43:20;;;;;;;39.80;30.15;;;1.50;99.90;;;;;;2073361;28;20111;-71
2023/02/15 05:44:20;;;;;;;45.40;31.38;;;1.40;99.90;;;;;;2074057;28;20030;-71
2023/02/15 05:45:21;;;;;;;44.30;32.28;;;1.50;99.90;;;;;;2075844;28;20397;-71
2023/02/15 05:46:21;;;;;;;44.65;33.67;;;1.50;99.90;;;;;;2076373;28;20591;-71
2023/02/15 05:47:22;;;;;;;47.25;35.47;;;1.40;99.90;;;;;;2078336;28;20021;-71
2023/02/15 05:48:24;;;;;;;46.17;33.53;;;1.40;99.90;;;;;;2077401;28;20037;-71
2023/02/15 05:49:25;;;;;;;51.08;35.78;;;1.40;99.90;;;;;;2076265;28;20013;-71
2023/02/15 05:50:26;;;;;;;40.75;30.27;;;1.50;99.90;;;;;;2075793;28;20021;-71
2023/02/15 05:51:26;;;;;;;44.95;32.22;;;1.40;99.90;;;;;;2074093;28;20078;-71